createdAt,value
2022-11-21T00:00:03.162Z,1.50
2022-11-21T00:01:03.184Z,1.50
2022-11-21T00:02:03.205Z,1.60
2022-11-21T00:03:03.192Z,1.60
2022-11-21T00:04:03.187Z,1.60
2022-11-21T00:05:03.217Z,1.60
2022-11-21T00:06:03.173Z,1.60
2022-11-21T00:07:03.179Z,1.60
2022-11-21T00:08:03.137Z,1.70
2022-11-21T00:09:03.218Z,1.70
2022-11-21T00:10:03.322Z,1.70
2022-11-21T00:11:03.287Z,1.70
2022-11-21T00:12:03.215Z,1.70
2022-11-21T00:13:03.296Z,1.70
2022-11-21T00:14:03.242Z,1.70
2022-11-21T00:15:03.257Z,1.70
2022-11-21T00:16:03.201Z,1.70
2022-11-21T00:17:03.326Z,1.70
2022-11-21T00:18:03.321Z,1.70
2022-11-21T00:19:03.391Z,1.70
2022-11-21T00:20:03.445Z,1.70
2022-11-21T00:21:03.409Z,1.70
2022-11-21T00:22:03.470Z,1.70
2022-11-21T00:23:03.379Z,1.70
2022-11-21T00:24:03.474Z,1.70
2022-11-21T00:25:03.593Z,1.70
2022-11-21T00:26:03.530Z,1.70
2022-11-21T00:27:03.489Z,1.80
2022-11-21T00:28:03.397Z,1.80
2022-11-21T00:29:03.461Z,1.80
2022-11-21T00:30:03.453Z,1.70
2022-11-21T00:31:03.344Z,1.80
2022-11-21T00:32:03.341Z,1.80
2022-11-21T00:33:03.365Z,1.80
2022-11-21T00:34:03.494Z,1.80
2022-11-21T00:35:03.552Z,1.80
2022-11-21T00:36:02.729Z,1.80
2022-11-21T00:37:02.813Z,1.80
2022-11-21T00:38:02.886Z,1.80
2022-11-21T00:39:02.845Z,1.80
2022-11-21T00:40:02.764Z,1.80
2022-11-21T00:41:02.715Z,1.80
2022-11-21T00:42:02.696Z,1.80
2022-11-21T00:43:02.699Z,1.90
2022-11-21T00:44:02.721Z,1.90
2022-11-21T00:45:02.811Z,1.90
2022-11-21T00:46:03.297Z,1.90
2022-11-21T00:47:02.692Z,1.90
2022-11-21T00:48:02.684Z,1.90
2022-11-21T00:49:03.657Z,1.90
2022-11-21T00:50:03.634Z,1.90
2022-11-21T00:51:03.544Z,1.90
2022-11-21T00:52:03.526Z,1.90
2022-11-21T00:53:03.530Z,1.90
2022-11-21T00:54:03.393Z,1.90
2022-11-21T00:55:03.358Z,2.00
2022-11-21T00:56:03.453Z,2.00
2022-11-21T00:57:03.420Z,2.00
2022-11-21T00:58:03.428Z,2.00
2022-11-21T00:59:03.385Z,2.00
2022-11-21T01:00:03.301Z,2.00
2022-11-21T01:01:03.214Z,2.00
2022-11-21T01:02:03.282Z,2.00
2022-11-21T01:03:03.237Z,2.00
2022-11-21T01:04:03.297Z,2.00
2022-11-21T01:05:03.248Z,2.00
2022-11-21T01:06:03.325Z,2.10
2022-11-21T01:07:03.352Z,2.00
2022-11-21T01:08:03.403Z,2.10
2022-11-21T01:09:03.364Z,2.10
2022-11-21T01:10:03.741Z,2.10
2022-11-21T01:11:02.657Z,2.10
2022-11-21T01:12:03.612Z,2.10
2022-11-21T01:13:03.642Z,2.10
2022-11-21T01:14:03.544Z,2.10
2022-11-21T01:15:03.519Z,2.10
2022-11-21T01:16:03.591Z,2.20
2022-11-21T01:17:03.558Z,2.20
2022-11-21T01:18:03.586Z,2.20
2022-11-21T01:19:03.490Z,2.20
2022-11-21T01:20:03.627Z,2.20
2022-11-21T01:21:03.530Z,2.20
2022-11-21T01:22:02.636Z,2.20
2022-11-21T01:23:02.650Z,2.30
2022-11-21T01:24:02.647Z,2.30
2022-11-21T01:25:03.622Z,2.30
2022-11-21T01:26:03.612Z,2.30
2022-11-21T01:27:03.521Z,2.30
2022-11-21T01:28:03.577Z,2.30
2022-11-21T01:29:02.712Z,2.30
2022-11-21T01:30:02.735Z,2.30
2022-11-21T01:31:02.710Z,2.30
2022-11-21T01:32:02.746Z,2.30
2022-11-21T01:33:02.724Z,2.30
2022-11-21T01:34:02.653Z,2.40
2022-11-21T01:35:02.715Z,2.40
2022-11-21T01:36:03.613Z,2.40
2022-11-21T01:37:03.634Z,2.40
2022-11-21T01:38:02.702Z,2.40
2022-11-21T01:39:02.650Z,2.40
2022-11-21T01:40:02.606Z,2.40
2022-11-21T01:41:02.689Z,2.50
2022-11-21T01:42:02.722Z,2.50
2022-11-21T01:43:02.631Z,2.50
2022-11-21T01:44:03.595Z,2.50
2022-11-21T01:45:02.701Z,2.50
2022-11-21T01:46:02.685Z,2.50
2022-11-21T01:47:02.710Z,2.50
2022-11-21T01:48:03.596Z,2.50
2022-11-21T01:49:03.560Z,2.50
2022-11-21T01:50:03.593Z,2.50
2022-11-21T01:51:03.627Z,2.50
2022-11-21T01:52:02.649Z,2.50
2022-11-21T01:53:02.653Z,2.50
2022-11-21T01:54:03.596Z,2.60
2022-11-21T01:55:02.671Z,2.50
2022-11-21T01:56:02.769Z,2.60
2022-11-21T01:57:02.678Z,2.60
2022-11-21T01:58:02.677Z,2.60
2022-11-21T01:59:02.715Z,2.60
2022-11-21T02:00:02.686Z,2.60
2022-11-21T02:01:03.581Z,2.60
2022-11-21T02:02:02.610Z,2.60
2022-11-21T02:03:02.661Z,2.60
2022-11-21T02:04:02.739Z,2.60
2022-11-21T02:05:02.741Z,2.60
2022-11-21T02:06:03.610Z,2.60
2022-11-21T02:07:03.628Z,2.60
2022-11-21T02:08:02.688Z,2.60
2022-11-21T02:09:03.594Z,2.70
2022-11-21T02:10:02.659Z,2.60
2022-11-21T02:11:02.684Z,2.60
2022-11-21T02:12:02.660Z,2.70
2022-11-21T02:13:02.723Z,2.70
2022-11-21T02:14:02.676Z,2.70
2022-11-21T02:15:02.725Z,2.70
2022-11-21T02:16:02.671Z,2.70
2022-11-21T02:17:02.708Z,2.70
2022-11-21T02:18:03.662Z,2.70
2022-11-21T02:19:03.600Z,2.70
2022-11-21T02:20:03.532Z,2.70
2022-11-21T02:21:03.549Z,2.70
2022-11-21T02:22:03.515Z,2.70
2022-11-21T02:23:03.477Z,2.70
2022-11-21T02:24:03.384Z,2.80
2022-11-21T02:25:03.524Z,2.80
2022-11-21T02:26:03.463Z,2.80
2022-11-21T02:27:03.410Z,2.80
2022-11-21T02:28:03.387Z,2.80
2022-11-21T02:29:03.336Z,2.80
2022-11-21T02:30:03.251Z,2.80
2022-11-21T02:31:03.423Z,2.80
2022-11-21T02:32:03.414Z,2.80
2022-11-21T02:33:03.404Z,2.80
2022-11-21T02:34:03.440Z,2.80
2022-11-21T02:35:03.509Z,2.80
2022-11-21T02:36:02.624Z,2.80
2022-11-21T02:37:02.694Z,2.80
2022-11-21T02:38:02.628Z,2.80
2022-11-21T02:39:03.541Z,2.80
2022-11-21T02:40:03.531Z,2.80
2022-11-21T02:41:03.469Z,2.80
2022-11-21T02:42:03.540Z,2.80
2022-11-21T02:43:02.872Z,2.80
2022-11-21T02:44:02.689Z,2.90
2022-11-21T02:45:02.765Z,2.90
2022-11-21T02:46:02.741Z,2.80
2022-11-21T02:47:03.095Z,2.90
2022-11-21T02:48:04.349Z,2.90
2022-11-21T02:49:03.045Z,2.80
2022-11-21T02:50:02.956Z,2.90
2022-11-21T02:51:02.880Z,2.90
2022-11-21T02:52:02.976Z,2.90
2022-11-21T02:53:03.016Z,2.90
2022-11-21T02:54:03.001Z,2.90
2022-11-21T02:55:02.894Z,2.90
2022-11-21T02:56:02.926Z,2.90
2022-11-21T02:57:02.981Z,2.90
2022-11-21T02:58:05.058Z,2.90
2022-11-21T02:59:03.090Z,2.90
2022-11-21T03:00:03.066Z,2.90
2022-11-21T03:01:03.146Z,2.90
2022-11-21T03:02:02.970Z,2.90
2022-11-21T03:03:02.897Z,2.90
2022-11-21T03:04:02.843Z,2.90
2022-11-21T03:05:02.916Z,2.90
2022-11-21T03:06:02.865Z,2.90
2022-11-21T03:07:03.007Z,2.90
2022-11-21T03:08:02.940Z,2.90
2022-11-21T03:09:02.897Z,2.90
2022-11-21T03:10:02.857Z,2.90
2022-11-21T03:11:02.941Z,2.90
2022-11-21T03:12:02.907Z,2.90
2022-11-21T03:13:02.799Z,2.90
2022-11-21T03:14:02.847Z,2.90
2022-11-21T03:15:02.683Z,2.90
2022-11-21T03:16:02.708Z,2.90
2022-11-21T03:17:02.693Z,2.90
2022-11-21T03:18:02.656Z,2.90
2022-11-21T03:19:02.693Z,2.90
2022-11-21T03:20:02.740Z,2.90
2022-11-21T03:21:02.715Z,2.90
2022-11-21T03:22:02.625Z,2.90
2022-11-21T03:23:02.740Z,2.90
2022-11-21T03:24:02.846Z,2.90
2022-11-21T03:25:02.707Z,2.90
2022-11-21T03:26:02.858Z,2.90
2022-11-21T03:27:02.780Z,2.90
2022-11-21T03:28:02.833Z,2.90
2022-11-21T03:29:02.819Z,2.90
2022-11-21T03:30:02.900Z,3.00
2022-11-21T03:31:02.861Z,2.90
2022-11-21T03:32:02.824Z,3.00
2022-11-21T03:33:02.712Z,3.00
2022-11-21T03:34:02.828Z,2.90
2022-11-21T03:35:02.858Z,2.90
2022-11-21T03:36:02.809Z,2.90
2022-11-21T03:37:02.769Z,2.90
2022-11-21T03:38:02.724Z,2.90
2022-11-21T03:39:02.609Z,2.90
2022-11-21T03:40:03.587Z,2.90
2022-11-21T03:41:02.616Z,2.90
2022-11-21T03:42:02.670Z,2.90
2022-11-21T03:43:02.714Z,2.90
2022-11-21T03:44:02.712Z,2.90
2022-11-21T03:45:02.746Z,2.90
2022-11-21T03:46:02.655Z,2.90
2022-11-21T03:47:02.917Z,2.90
2022-11-21T03:48:02.687Z,2.90
2022-11-21T03:49:02.798Z,2.90
2022-11-21T03:50:02.727Z,2.80
2022-11-21T03:51:03.576Z,2.90
2022-11-21T03:52:02.666Z,2.90
2022-11-21T03:53:02.700Z,2.80
2022-11-21T03:54:03.573Z,2.80
2022-11-21T03:55:02.640Z,2.80
2022-11-21T03:56:02.642Z,2.80
2022-11-21T03:57:02.730Z,2.80
2022-11-21T03:58:02.756Z,2.80
2022-11-21T03:59:02.787Z,2.80
2022-11-21T04:00:02.830Z,2.80
2022-11-21T04:01:03.096Z,2.80
2022-11-21T04:02:03.101Z,2.80
2022-11-21T04:03:03.111Z,2.80
2022-11-21T04:04:03.035Z,2.80
2022-11-21T04:05:03.016Z,2.80
2022-11-21T04:06:03.073Z,2.80
2022-11-21T04:07:03.113Z,2.80
2022-11-21T04:08:03.226Z,2.80
2022-11-21T04:09:03.133Z,2.80
2022-11-21T04:10:03.251Z,2.80
2022-11-21T04:11:03.179Z,2.80
2022-11-21T04:12:07.395Z,2.80
2022-11-21T04:13:03.081Z,2.80
2022-11-21T04:14:03.119Z,2.80
2022-11-21T04:15:03.059Z,2.80
2022-11-21T04:16:02.969Z,2.80
2022-11-21T04:17:02.922Z,2.80
2022-11-21T04:18:02.910Z,2.80
2022-11-21T04:19:02.810Z,2.80
2022-11-21T04:20:02.741Z,2.80
2022-11-21T04:21:02.744Z,2.80
2022-11-21T04:22:02.817Z,2.80
2022-11-21T04:23:02.762Z,2.80
2022-11-21T04:24:02.808Z,2.80
2022-11-21T04:25:02.744Z,2.80
2022-11-21T04:26:02.743Z,2.80
2022-11-21T04:27:02.828Z,2.80
2022-11-21T04:28:02.755Z,2.80
2022-11-21T04:29:02.645Z,2.80
2022-11-21T04:30:02.718Z,2.80
2022-11-21T04:31:04.717Z,2.80
2022-11-21T04:32:02.717Z,2.80
2022-11-21T04:33:03.550Z,2.80
2022-11-21T04:34:03.581Z,2.80
2022-11-21T04:35:03.508Z,2.80
2022-11-21T04:36:03.610Z,2.80
2022-11-21T04:37:06.343Z,2.80
2022-11-21T04:38:03.613Z,2.80
2022-11-21T04:39:03.655Z,2.80
2022-11-21T04:40:03.593Z,2.80
2022-11-21T04:41:02.658Z,2.80
2022-11-21T04:42:02.717Z,2.80
2022-11-21T04:43:02.746Z,2.80
2022-11-21T04:44:02.787Z,2.80
2022-11-21T04:45:02.885Z,2.80
2022-11-21T04:46:02.845Z,2.80
2022-11-21T04:47:05.490Z,2.80
2022-11-21T04:48:02.907Z,2.80
2022-11-21T04:49:02.869Z,2.80
2022-11-21T04:50:02.772Z,2.80
2022-11-21T04:51:02.763Z,2.80
2022-11-21T04:52:02.707Z,2.80
2022-11-21T04:53:02.782Z,2.80
2022-11-21T04:54:03.449Z,2.80
2022-11-21T04:55:03.415Z,2.90
2022-11-21T04:56:03.363Z,2.90
2022-11-21T04:57:03.368Z,2.90
2022-11-21T04:58:03.286Z,2.90
2022-11-21T04:59:03.440Z,2.90
2022-11-21T05:00:03.459Z,2.90
2022-11-21T05:01:03.519Z,2.90
2022-11-21T05:02:03.552Z,2.90
2022-11-21T05:03:03.583Z,2.90
2022-11-21T05:04:03.605Z,2.90
2022-11-21T05:05:03.541Z,2.90
2022-11-21T05:06:03.509Z,2.90
2022-11-21T05:07:03.581Z,2.90
2022-11-21T05:08:03.441Z,2.90
2022-11-21T05:09:03.455Z,2.90
2022-11-21T05:10:03.506Z,2.90
2022-11-21T05:11:02.651Z,3.00
2022-11-21T05:12:02.739Z,2.90
2022-11-21T05:13:02.618Z,2.90
2022-11-21T05:14:02.802Z,3.00
2022-11-21T05:15:02.714Z,3.00
2022-11-21T05:16:02.642Z,2.90
2022-11-21T05:17:02.724Z,2.90
2022-11-21T05:18:02.792Z,2.90
2022-11-21T05:19:02.701Z,2.90
2022-11-21T05:20:03.211Z,2.90
2022-11-21T05:21:03.235Z,2.90
2022-11-21T05:22:03.224Z,2.90
2022-11-21T05:23:03.206Z,2.90
2022-11-21T05:24:03.137Z,2.90
2022-11-21T05:25:03.399Z,2.90
2022-11-21T05:26:03.275Z,2.90
2022-11-21T05:27:03.265Z,2.90
2022-11-21T05:28:03.403Z,2.90
2022-11-21T05:29:03.332Z,2.90
2022-11-21T05:30:03.288Z,2.80
2022-11-21T05:31:03.268Z,2.80
2022-11-21T05:32:03.327Z,2.80
2022-11-21T05:33:03.225Z,2.80
2022-11-21T05:34:03.309Z,2.80
2022-11-21T05:35:03.142Z,2.80
2022-11-21T05:36:03.130Z,2.70
2022-11-21T05:37:03.196Z,2.70
2022-11-21T05:38:03.270Z,2.70
2022-11-21T05:39:03.155Z,2.70
2022-11-21T05:40:03.215Z,2.70
2022-11-21T05:41:03.295Z,2.70
2022-11-21T05:42:03.524Z,2.70
2022-11-21T05:43:03.090Z,2.70
2022-11-21T05:44:03.101Z,2.60
2022-11-21T05:45:03.211Z,2.60
2022-11-21T05:46:03.036Z,2.60
2022-11-21T05:47:02.919Z,2.60
2022-11-21T05:48:02.947Z,2.60
2022-11-21T05:49:02.930Z,2.60
2022-11-21T05:50:02.961Z,2.50
2022-11-21T05:51:02.926Z,2.50
2022-11-21T05:52:02.855Z,2.50
2022-11-21T05:53:02.871Z,2.50
2022-11-21T05:54:03.223Z,2.50
2022-11-21T05:55:03.194Z,2.50
2022-11-21T05:56:03.103Z,2.40
2022-11-21T05:57:03.118Z,2.40
2022-11-21T05:58:03.143Z,2.40
2022-11-21T05:59:03.094Z,2.40
2022-11-21T06:00:03.033Z,2.40
2022-11-21T06:01:03.016Z,2.40
2022-11-21T06:02:02.990Z,2.40
2022-11-21T06:03:03.092Z,2.40
2022-11-21T06:04:03.015Z,2.40
2022-11-21T06:05:03.122Z,2.30
2022-11-21T06:06:03.138Z,2.30
2022-11-21T06:07:03.103Z,2.30
2022-11-21T06:08:03.024Z,2.30
2022-11-21T06:09:03.037Z,2.30
2022-11-21T06:10:02.969Z,2.30
2022-11-21T06:11:02.851Z,2.20
2022-11-21T06:12:02.796Z,2.20
2022-11-21T06:13:02.730Z,2.20
2022-11-21T06:14:02.814Z,2.20
2022-11-21T06:15:02.795Z,2.20
2022-11-21T06:16:02.829Z,2.10
2022-11-21T06:17:02.941Z,2.10
2022-11-21T06:18:02.888Z,2.10
2022-11-21T06:19:02.815Z,2.10
2022-11-21T06:20:02.951Z,2.10
2022-11-21T06:21:02.990Z,2.00
2022-11-21T06:22:02.972Z,2.00
2022-11-21T06:23:02.974Z,2.00
2022-11-21T06:24:03.077Z,1.90
2022-11-21T06:25:02.989Z,1.90
2022-11-21T06:26:03.068Z,1.90
2022-11-21T06:27:03.189Z,1.90
2022-11-21T06:28:03.108Z,1.90
2022-11-21T06:29:03.177Z,1.90
2022-11-21T06:30:03.217Z,1.90
2022-11-21T06:31:02.642Z,1.90
2022-11-21T06:32:02.703Z,1.80
2022-11-21T06:33:02.669Z,1.80
2022-11-21T06:34:02.623Z,1.80
2022-11-21T06:35:02.606Z,1.80
2022-11-21T06:36:02.611Z,1.80
2022-11-21T06:37:02.651Z,1.70
2022-11-21T06:38:03.614Z,1.70
2022-11-21T06:39:03.523Z,1.70
2022-11-21T06:40:03.494Z,1.70
2022-11-21T06:41:03.501Z,1.70
2022-11-21T06:42:03.648Z,1.70
2022-11-21T06:43:03.489Z,1.70
2022-11-21T06:44:03.407Z,1.60
2022-11-21T06:45:03.442Z,1.60
2022-11-21T06:46:03.371Z,1.60
2022-11-21T06:47:03.295Z,1.60
2022-11-21T06:48:03.385Z,1.60
2022-11-21T06:49:03.398Z,1.60
2022-11-21T06:50:03.331Z,1.60
2022-11-21T06:51:03.376Z,1.60
2022-11-21T06:52:03.276Z,1.60
2022-11-21T06:53:03.334Z,1.60
2022-11-21T06:54:03.369Z,1.50
2022-11-21T06:55:03.391Z,1.60
2022-11-21T06:56:03.284Z,1.50
2022-11-21T06:57:03.423Z,1.50
2022-11-21T06:58:03.442Z,1.50
2022-11-21T06:59:03.558Z,1.50
2022-11-21T07:00:03.495Z,1.50
2022-11-21T07:01:03.423Z,1.50
2022-11-21T07:02:03.491Z,1.50
2022-11-21T07:03:03.672Z,1.50
2022-11-21T07:04:03.451Z,1.50
2022-11-21T07:05:03.409Z,1.50
2022-11-21T07:06:03.584Z,1.50
2022-11-21T07:07:03.597Z,1.50
2022-11-21T07:08:02.642Z,1.40
2022-11-21T07:09:32.578Z,1.50
2022-11-21T07:10:03.599Z,1.50
2022-11-21T07:11:23.939Z,1.40
2022-11-21T07:12:03.613Z,1.40
2022-11-21T07:13:03.639Z,1.40
2022-11-21T07:14:07.826Z,1.40
2022-11-21T07:15:03.476Z,1.40
2022-11-21T07:16:03.579Z,1.40
2022-11-21T07:17:03.623Z,1.40
2022-11-21T07:18:03.574Z,1.40
2022-11-21T07:19:03.512Z,1.40
2022-11-21T07:20:02.694Z,1.40
2022-11-21T07:21:03.575Z,1.40
2022-11-21T07:22:03.527Z,1.40
2022-11-21T07:23:03.620Z,1.40
2022-11-21T07:24:03.666Z,1.40
2022-11-21T07:25:02.645Z,1.40
2022-11-21T07:26:02.664Z,1.40
2022-11-21T07:27:02.714Z,1.40
2022-11-21T07:28:02.746Z,1.40
2022-11-21T07:29:02.777Z,1.40
2022-11-21T07:30:02.768Z,1.40
2022-11-21T07:31:03.564Z,1.40
2022-11-21T07:32:02.618Z,1.40
2022-11-21T07:33:02.759Z,1.40
2022-11-21T07:34:03.678Z,1.40
2022-11-21T07:35:03.513Z,1.40
2022-11-21T07:36:03.535Z,1.40
2022-11-21T07:37:05.260Z,1.40
2022-11-21T07:38:03.580Z,1.40
2022-11-21T07:39:03.572Z,1.40
2022-11-21T07:40:03.571Z,1.40
2022-11-21T07:41:03.412Z,1.40
2022-11-21T07:42:03.453Z,1.40
2022-11-21T07:43:06.661Z,1.40
2022-11-21T07:44:03.543Z,1.40
2022-11-21T07:45:03.523Z,1.40
2022-11-21T07:46:03.400Z,1.40
2022-11-21T07:47:03.437Z,1.40
2022-11-21T07:48:03.563Z,1.40
2022-11-21T07:49:03.905Z,1.40
2022-11-21T07:50:03.482Z,1.40
2022-11-21T07:51:03.455Z,1.40
2022-11-21T07:52:03.474Z,1.40
2022-11-21T07:53:03.529Z,1.40
2022-11-21T07:54:02.774Z,1.40
2022-11-21T07:55:02.650Z,1.50
2022-11-21T07:56:02.689Z,1.50
2022-11-21T07:57:02.669Z,1.50
2022-11-21T07:58:02.657Z,1.50
2022-11-21T07:59:02.770Z,1.50
2022-11-21T08:00:02.660Z,1.50
2022-11-21T08:01:03.603Z,1.50
2022-11-21T08:02:03.480Z,1.50
2022-11-21T08:03:03.539Z,1.50
2022-11-21T08:04:03.423Z,1.50
2022-11-21T08:05:03.487Z,1.50
2022-11-21T08:06:03.568Z,1.50
2022-11-21T08:07:03.569Z,1.50
2022-11-21T08:08:03.640Z,1.50
2022-11-21T08:09:03.585Z,1.50
2022-11-21T08:10:02.791Z,1.50
2022-11-21T08:11:02.807Z,1.50
2022-11-21T08:12:02.657Z,1.60
2022-11-21T08:13:02.679Z,1.60
2022-11-21T08:14:02.727Z,1.60
2022-11-21T08:15:02.638Z,1.60
2022-11-21T08:16:02.818Z,1.60
2022-11-21T08:17:02.744Z,1.60
2022-11-21T08:18:02.660Z,1.60
2022-11-21T08:19:02.760Z,1.60
2022-11-21T08:20:02.763Z,1.60
2022-11-21T08:21:02.758Z,1.60
2022-11-21T08:22:02.710Z,1.60
2022-11-21T08:23:02.699Z,1.60
2022-11-21T08:24:03.158Z,1.60
2022-11-21T08:25:03.225Z,1.60
2022-11-21T08:26:03.269Z,1.60
2022-11-21T08:27:03.346Z,1.60
2022-11-21T08:28:03.334Z,1.60
2022-11-21T08:29:03.228Z,1.60
2022-11-21T08:30:03.268Z,1.60
2022-11-21T08:31:03.337Z,1.60
2022-11-21T08:32:03.293Z,1.60
2022-11-21T08:33:03.180Z,1.60
2022-11-21T08:34:03.147Z,1.60
2022-11-21T08:35:03.149Z,1.60
2022-11-21T08:36:02.993Z,1.70
2022-11-21T08:37:03.192Z,1.70
2022-11-21T08:38:03.084Z,1.70
2022-11-21T08:39:03.113Z,1.70
2022-11-21T08:40:03.038Z,1.60
2022-11-21T08:41:02.928Z,1.70
2022-11-21T08:42:03.041Z,1.60
2022-11-21T08:43:02.884Z,1.60
2022-11-21T08:44:02.761Z,1.70
2022-11-21T08:45:02.738Z,1.60
2022-11-21T08:46:02.622Z,1.70
2022-11-21T08:47:02.753Z,1.60
2022-11-21T08:48:02.688Z,1.70
2022-11-21T08:49:02.651Z,1.70
2022-11-21T08:50:07.549Z,1.70
2022-11-21T08:51:03.592Z,1.70
2022-11-21T08:52:03.623Z,1.70
2022-11-21T08:53:03.530Z,1.70
2022-11-21T08:54:02.673Z,1.70
2022-11-21T08:55:02.769Z,1.70
2022-11-21T08:56:04.106Z,1.70
2022-11-21T08:57:02.769Z,1.70
2022-11-21T08:58:02.732Z,1.70
2022-11-21T08:59:02.807Z,1.70
2022-11-21T09:00:02.819Z,1.70
2022-11-21T09:01:02.702Z,1.70
2022-11-21T09:02:02.719Z,1.70
2022-11-21T09:03:02.814Z,1.70
2022-11-21T09:04:02.755Z,1.70
2022-11-21T09:05:02.686Z,1.70
2022-11-21T09:06:02.754Z,1.70
2022-11-21T09:07:02.793Z,1.70
2022-11-21T09:08:02.706Z,1.70
2022-11-21T09:09:02.764Z,1.70
2022-11-21T09:10:02.737Z,1.70
2022-11-21T09:11:02.841Z,1.70
2022-11-21T09:12:02.707Z,1.80
2022-11-21T09:13:02.766Z,1.80
2022-11-21T09:14:02.915Z,1.70
2022-11-21T09:15:02.830Z,1.80
2022-11-21T09:16:02.874Z,1.80
2022-11-21T09:17:02.825Z,1.80
2022-11-21T09:18:02.730Z,1.80
2022-11-21T09:19:02.696Z,1.80
2022-11-21T09:20:02.782Z,1.80
2022-11-21T09:21:02.786Z,1.90
2022-11-21T09:22:02.866Z,1.90
2022-11-21T09:23:02.844Z,1.90
2022-11-21T09:24:02.880Z,1.90
2022-11-21T09:25:02.832Z,1.90
2022-11-21T09:26:02.842Z,1.90
2022-11-21T09:27:02.899Z,1.90
2022-11-21T09:28:02.881Z,1.90
2022-11-21T09:29:02.950Z,2.00
2022-11-21T09:30:03.004Z,2.00
2022-11-21T09:31:03.058Z,2.00
2022-11-21T09:32:03.114Z,2.00
2022-11-21T09:33:03.131Z,2.00
2022-11-21T09:34:03.030Z,2.00
2022-11-21T09:35:03.117Z,2.00
2022-11-21T09:36:03.054Z,2.00
2022-11-21T09:37:03.080Z,2.00
2022-11-21T09:38:03.106Z,2.00
2022-11-21T09:39:03.131Z,2.00
2022-11-21T09:40:03.138Z,2.00
2022-11-21T09:41:03.093Z,2.00
2022-11-21T09:42:03.162Z,2.00
2022-11-21T09:43:03.064Z,2.00
2022-11-21T09:44:03.192Z,2.00
2022-11-21T09:45:03.172Z,2.00
2022-11-21T09:46:03.222Z,2.00
2022-11-21T09:47:03.199Z,2.00
2022-11-21T09:48:03.250Z,2.00
2022-11-21T09:49:03.489Z,2.10
2022-11-21T09:50:03.238Z,2.10
2022-11-21T09:51:03.294Z,2.10
2022-11-21T09:52:03.349Z,2.10
2022-11-21T09:53:03.365Z,2.10
2022-11-21T09:54:03.296Z,2.10
2022-11-21T09:55:03.391Z,2.10
2022-11-21T09:56:03.343Z,2.10
2022-11-21T09:57:03.310Z,2.10
2022-11-21T09:58:03.267Z,2.10
2022-11-21T09:59:03.249Z,2.10
2022-11-21T10:00:03.410Z,2.10
2022-11-21T10:01:03.560Z,2.10
2022-11-21T10:02:03.447Z,2.20
2022-11-21T10:03:03.494Z,2.20
2022-11-21T10:04:03.400Z,2.20
2022-11-21T10:05:03.523Z,2.20
2022-11-21T10:06:03.486Z,2.20
2022-11-21T10:07:03.617Z,2.20
2022-11-21T10:08:03.554Z,2.20
2022-11-21T10:09:03.645Z,2.20
2022-11-21T10:10:03.653Z,2.30
2022-11-21T10:11:11.533Z,2.20
2022-11-21T10:12:03.585Z,2.30
2022-11-21T10:13:02.646Z,2.30
2022-11-21T10:14:02.678Z,2.30
2022-11-21T10:15:02.704Z,2.30
2022-11-21T10:16:02.741Z,2.30
2022-11-21T10:17:02.766Z,2.30
2022-11-21T10:18:02.846Z,2.30
2022-11-21T10:19:02.707Z,2.30
2022-11-21T10:20:02.663Z,2.30
2022-11-21T10:21:02.813Z,2.30
2022-11-21T10:22:02.738Z,2.30
2022-11-21T10:23:02.623Z,2.30
2022-11-21T10:24:03.664Z,2.30
2022-11-21T10:25:03.533Z,2.30
2022-11-21T10:26:03.675Z,2.30
2022-11-21T10:27:02.611Z,2.30
2022-11-21T10:28:02.733Z,2.30
2022-11-21T10:29:02.733Z,2.30
2022-11-21T10:30:02.753Z,2.30
2022-11-21T10:31:02.798Z,2.30
2022-11-21T10:32:02.656Z,2.30
2022-11-21T10:33:03.574Z,2.30
2022-11-21T10:34:03.555Z,2.30
2022-11-21T10:35:03.507Z,2.30
2022-11-21T10:36:03.464Z,2.30
2022-11-21T10:37:06.444Z,2.30
2022-11-21T10:38:03.520Z,2.30
2022-11-21T10:39:03.579Z,2.30
2022-11-21T10:40:03.534Z,2.40
2022-11-21T10:41:03.504Z,2.30
2022-11-21T10:42:03.558Z,2.30
2022-11-21T10:43:03.556Z,2.40
2022-11-21T10:44:02.728Z,2.30
2022-11-21T10:45:02.702Z,2.40
2022-11-21T10:46:02.718Z,2.40
2022-11-21T10:47:02.688Z,2.30
2022-11-21T10:48:05.260Z,2.40
2022-11-21T10:49:02.692Z,2.40
2022-11-21T10:50:03.626Z,2.40
2022-11-21T10:51:02.677Z,2.40
2022-11-21T10:52:02.706Z,2.40
2022-11-21T10:53:02.617Z,2.30
2022-11-21T10:54:07.476Z,2.40
2022-11-21T10:55:03.556Z,2.30
2022-11-21T10:56:03.621Z,2.40
2022-11-21T10:57:03.488Z,2.30
2022-11-21T10:58:03.594Z,2.40
2022-11-21T10:59:03.529Z,2.40
2022-11-21T11:00:03.549Z,2.40
2022-11-21T11:01:02.712Z,2.40
2022-11-21T11:02:02.763Z,2.40
2022-11-21T11:03:02.707Z,2.40
2022-11-21T11:04:21.204Z,2.40
2022-11-21T11:05:03.033Z,2.40
2022-11-21T11:06:02.963Z,2.40
2022-11-21T11:07:02.972Z,2.40
2022-11-21T11:08:03.057Z,2.40
2022-11-21T11:09:03.057Z,2.50
2022-11-21T11:10:03.051Z,2.50
2022-11-21T11:11:03.040Z,2.50
2022-11-21T11:12:03.005Z,2.50
2022-11-21T11:13:05.207Z,2.60
2022-11-21T11:14:03.576Z,2.60
2022-11-21T11:15:02.683Z,2.60
2022-11-21T11:16:02.679Z,2.60
2022-11-21T11:17:03.614Z,2.60
2022-11-21T11:18:07.569Z,2.70
2022-11-21T11:19:03.643Z,2.70
2022-11-21T11:20:02.683Z,2.70
2022-11-21T11:21:03.550Z,2.70
2022-11-21T11:22:03.552Z,2.70
2022-11-21T11:23:08.693Z,2.80
2022-11-21T11:24:03.539Z,2.80
2022-11-21T11:25:03.633Z,2.80
2022-11-21T11:26:02.736Z,2.80
2022-11-21T11:27:08.564Z,2.80
2022-11-21T11:28:03.649Z,2.80
2022-11-21T11:29:03.635Z,2.80
2022-11-21T11:30:02.717Z,2.80
2022-11-21T11:31:02.695Z,2.80
2022-11-21T11:32:02.680Z,2.80
2022-11-21T11:33:07.698Z,2.90
2022-11-21T11:34:02.751Z,2.90
2022-11-21T11:35:02.804Z,2.90
2022-11-21T11:36:02.803Z,2.90
2022-11-21T11:37:02.748Z,2.90
2022-11-21T11:38:02.868Z,2.90
2022-11-21T11:39:02.824Z,3.00
2022-11-21T11:40:02.848Z,3.00
2022-11-21T11:41:02.791Z,3.00
2022-11-21T11:42:02.821Z,3.00
2022-11-21T11:43:02.806Z,3.00
2022-11-21T11:44:02.733Z,3.00
2022-11-21T11:45:02.660Z,3.10
2022-11-21T11:46:02.754Z,3.10
2022-11-21T11:47:02.658Z,3.20
2022-11-21T11:48:02.767Z,3.20
2022-11-21T11:49:19.554Z,3.20
2022-11-21T11:50:02.682Z,3.30
2022-11-21T11:51:02.692Z,3.30
2022-11-21T11:52:02.672Z,3.40
2022-11-21T11:53:02.722Z,3.40
2022-11-21T11:54:03.608Z,3.50
2022-11-21T11:55:03.583Z,3.50
2022-11-21T11:56:03.558Z,3.50
2022-11-21T11:57:03.606Z,3.60
2022-11-21T11:58:03.632Z,3.60
2022-11-21T11:59:03.581Z,3.60
2022-11-21T12:00:03.661Z,3.70
2022-11-21T12:01:03.589Z,3.70
2022-11-21T12:02:06.358Z,3.70
2022-11-21T12:03:03.499Z,3.80
2022-11-21T12:04:02.636Z,3.80
2022-11-21T12:05:02.643Z,3.90
2022-11-21T12:06:06.081Z,3.90
2022-11-21T12:07:54.312Z,3.90
2022-11-21T12:09:03.380Z,3.90
2022-11-21T12:10:03.450Z,3.90
2022-11-21T12:11:03.525Z,3.90
2022-11-21T12:12:02.622Z,4.00
2022-11-21T12:13:03.540Z,4.00
2022-11-21T12:14:02.622Z,4.00
2022-11-21T12:15:02.669Z,4.00
2022-11-21T12:16:08.484Z,4.00
2022-11-21T12:17:02.757Z,4.00
2022-11-21T12:18:02.659Z,4.00
2022-11-21T12:19:02.849Z,4.00
2022-11-21T12:20:02.770Z,4.00
2022-11-21T12:21:02.673Z,4.00
2022-11-21T12:22:02.806Z,4.00
2022-11-21T12:23:02.775Z,4.00
2022-11-21T12:24:02.748Z,3.90
2022-11-21T12:25:02.824Z,3.90
2022-11-21T12:26:02.837Z,3.90
2022-11-21T12:27:02.992Z,3.90
2022-11-21T12:28:02.818Z,3.90
2022-11-21T12:29:02.929Z,3.90
2022-11-21T12:30:03.072Z,3.90
2022-11-21T12:31:03.037Z,3.90
2022-11-21T12:32:02.983Z,3.90
2022-11-21T12:33:08.047Z,3.90
2022-11-21T12:34:02.875Z,3.90
2022-11-21T12:35:03.047Z,3.90
2022-11-21T12:36:16.586Z,3.90
2022-11-21T12:37:02.815Z,3.90
2022-11-21T12:38:02.897Z,3.90
2022-11-21T12:39:02.948Z,3.90
2022-11-21T12:40:02.968Z,3.90
2022-11-21T12:41:02.929Z,3.80
2022-11-21T12:42:03.023Z,3.80
2022-11-21T12:43:02.944Z,3.80
2022-11-21T12:44:02.882Z,3.80
2022-11-21T12:45:02.824Z,3.80
2022-11-21T12:46:02.739Z,3.80
2022-11-21T12:47:02.800Z,3.80
2022-11-21T12:48:02.757Z,3.80
2022-11-21T12:49:02.826Z,3.70
2022-11-21T12:50:02.886Z,3.70
2022-11-21T12:51:02.704Z,3.70
2022-11-21T12:52:02.762Z,3.70
2022-11-21T12:53:02.719Z,3.70
2022-11-21T12:54:02.723Z,3.70
2022-11-21T12:55:02.697Z,3.70
2022-11-21T12:56:02.638Z,3.70
2022-11-21T12:57:02.664Z,3.70
2022-11-21T12:58:02.706Z,3.70
2022-11-21T12:59:02.683Z,3.70
2022-11-21T13:00:02.731Z,3.70
2022-11-21T13:01:02.680Z,3.70
2022-11-21T13:02:02.733Z,3.70
2022-11-21T13:03:02.703Z,3.70
2022-11-21T13:04:02.649Z,3.70
2022-11-21T13:05:02.782Z,3.60
2022-11-21T13:06:02.645Z,3.60
2022-11-21T13:07:02.752Z,3.60
2022-11-21T13:08:02.752Z,3.60
2022-11-21T13:09:02.751Z,3.60
2022-11-21T13:10:02.823Z,3.60
2022-11-21T13:11:02.747Z,3.60
2022-11-21T13:12:02.703Z,3.60
2022-11-21T13:13:02.791Z,3.50
2022-11-21T13:14:02.633Z,3.50
2022-11-21T13:15:03.642Z,3.50
2022-11-21T13:16:02.858Z,3.50
2022-11-21T13:17:02.921Z,3.50
2022-11-21T13:18:02.945Z,3.50
2022-11-21T13:19:02.984Z,3.50